sensor_id;sensor_type;location;lat;lon;timestamp;pressure;altitude;pressure_sealevel;temperature;humidity
10261;BME280;5175;42.606;23.388;2023-02-13T00:00:35;95410.50;;;-1.90;100.00
10261;BME280;5175;42.606;23.388;2023-02-13T00:03:02;95408.72;;;-1.81;100.00
10261;BME280;5175;42.606;23.388;2023-02-13T00:05:29;95403.78;;;-1.84;100.00
10261;BME280;5175;42.606;23.388;2023-02-13T00:07:55;95387.44;;;-1.94;100.00
10261;BME280;5175;42.606;23.388;2023-02-13T00:10:22;95408.88;;;-1.82;100.00
10261;BME280;5175;42.606;23.388;2023-02-13T00:12:49;95407.56;;;-1.86;100.00
10261;BME280;5175;42.606;23.388;2023-02-13T00:15:17;95405.59;;;-1.93;100.00
10261;BME280;5175;42.606;23.388;2023-02-13T00:17:44;95407.88;;;-1.98;100.00
10261;BME280;5175;42.606;23.388;2023-02-13T00:20:11;95411.00;;;-1.94;100.00
10261;BME280;5175;42.606;23.388;2023-02-13T00:22:38;95419.16;;;-1.89;100.00
10261;BME280;5175;42.606;23.388;2023-02-13T00:25:06;95419.81;;;-2.03;100.00
10261;BME280;5175;42.606;23.388;2023-02-13T00:27:33;95403.94;;;-2.10;100.00
10261;BME280;5175;42.606;23.388;2023-02-13T00:30:00;95421.78;;;-1.89;100.00
10261;BME280;5175;42.606;23.388;2023-02-13T00:32:29;95421.75;;;-1.97;100.00
10261;BME280;5175;42.606;23.388;2023-02-13T00:34:56;95419.31;;;-1.99;100.00
10261;BME280;5175;42.606;23.388;2023-02-13T00:37:22;95424.19;;;-2.12;100.00
10261;BME280;5175;42.606;23.388;2023-02-13T00:39:49;95428.22;;;-2.33;100.00
10261;BME280;5175;42.606;23.388;2023-02-13T00:42:16;95424.97;;;-2.35;100.00
10261;BME280;5175;42.606;23.388;2023-02-13T00:44:42;95419.34;;;-2.57;100.00
10261;BME280;5175;42.606;23.388;2023-02-13T00:47:09;95425.75;;;-2.85;100.00
10261;BME280;5175;42.606;23.388;2023-02-13T00:49:40;95431.13;;;-2.53;100.00
10261;BME280;5175;42.606;23.388;2023-02-13T00:52:07;95421.03;;;-2.39;100.00
10261;BME280;5175;42.606;23.388;2023-02-13T00:54:33;95421.19;;;-2.41;100.00
10261;BME280;5175;42.606;23.388;2023-02-13T00:57:00;95427.09;;;-2.23;100.00
10261;BME280;5175;42.606;23.388;2023-02-13T00:59:27;95431.41;;;-1.98;100.00
10261;BME280;5175;42.606;23.388;2023-02-13T01:01:54;95433.84;;;-2.04;100.00
10261;BME280;5175;42.606;23.388;2023-02-13T01:04:20;95435.50;;;-2.03;100.00
10261;BME280;5175;42.606;23.388;2023-02-13T01:06:48;95437.13;;;-1.94;100.00
10261;BME280;5175;42.606;23.388;2023-02-13T01:09:15;95428.00;;;-1.82;100.00
10261;BME280;5175;42.606;23.388;2023-02-13T01:11:42;95432.91;;;-1.71;100.00
10261;BME280;5175;42.606;23.388;2023-02-13T01:14:08;95417.34;;;-1.97;100.00
10261;BME280;5175;42.606;23.388;2023-02-13T01:16:35;95427.66;;;-2.03;100.00
10261;BME280;5175;42.606;23.388;2023-02-13T01:19:03;95430.59;;;-1.98;100.00
10261;BME280;5175;42.606;23.388;2023-02-13T01:21:29;95432.06;;;-2.04;100.00
10261;BME280;5175;42.606;23.388;2023-02-13T01:24:02;95434.22;;;-1.83;100.00
10261;BME280;5175;42.606;23.388;2023-02-13T01:26:29;95435.50;;;-1.95;100.00
10261;BME280;5175;42.606;23.388;2023-02-13T01:28:55;95433.72;;;-1.86;100.00
10261;BME280;5175;42.606;23.388;2023-02-13T01:31:23;95437.66;;;-1.82;100.00
10261;BME280;5175;42.606;23.388;2023-02-13T01:33:50;95421.78;;;-1.89;100.00
10261;BME280;5175;42.606;23.388;2023-02-13T01:36:17;95433.72;;;-1.70;100.00
10261;BME280;5175;42.606;23.388;2023-02-13T01:38:43;95438.13;;;-1.79;100.00
10261;BME280;5175;42.606;23.388;2023-02-13T01:41:11;95433.09;;;-1.72;100.00
10261;BME280;5175;42.606;23.388;2023-02-13T01:43:46;95434.22;;;-1.75;100.00
10261;BME280;5175;42.606;23.388;2023-02-13T01:46:16;95441.59;;;-1.70;100.00
10261;BME280;5175;42.606;23.388;2023-02-13T01:48:43;95433.88;;;-1.64;100.00
10261;BME280;5175;42.606;23.388;2023-02-13T01:51:13;95424.88;;;-1.69;100.00
10261;BME280;5175;42.606;23.388;2023-02-13T01:53:44;95436.81;;;-1.59;100.00
10261;BME280;5175;42.606;23.388;2023-02-13T01:56:17;95445.69;;;-1.60;100.00
10261;BME280;5175;42.606;23.388;2023-02-13T01:58:48;95446.66;;;-1.53;100.00
10261;BME280;5175;42.606;23.388;2023-02-13T02:01:16;95447.63;;;-1.46;100.00
10261;BME280;5175;42.606;23.388;2023-02-13T02:03:45;95447.94;;;-1.41;100.00
10261;BME280;5175;42.606;23.388;2023-02-13T02:06:23;95445.50;;;-1.34;100.00
10261;BME280;5175;42.606;23.388;2023-02-13T02:08:52;95428.16;;;-1.51;100.00
10261;BME280;5175;42.606;23.388;2023-02-13T02:11:26;95442.06;;;-1.18;100.00
10261;BME280;5175;42.606;23.388;2023-02-13T02:13:57;95441.88;;;-1.25;100.00
10261;BME280;5175;42.606;23.388;2023-02-13T02:16:24;95433.88;;;-1.23;100.00
10261;BME280;5175;42.606;23.388;2023-02-13T02:18:51;95432.72;;;-1.21;100.00
10261;BME280;5175;42.606;23.388;2023-02-13T02:21:48;95432.22;;;-1.00;100.00
10261;BME280;5175;42.606;23.388;2023-02-13T02:24:55;95421.03;;;-0.94;100.00
10261;BME280;5175;42.606;23.388;2023-02-13T02:27:42;95417.16;;;-1.06;100.00
10261;BME280;5175;42.606;23.388;2023-02-13T02:30:34;95441.00;;;-0.77;100.00
10261;BME280;5175;42.606;23.388;2023-02-13T02:33:16;95439.97;;;-0.76;100.00
10261;BME280;5175;42.606;23.388;2023-02-13T02:35:49;95442.25;;;-0.65;100.00
10261;BME280;5175;42.606;23.388;2023-02-13T02:38:31;95446.28;;;-0.46;100.00
10261;BME280;5175;42.606;23.388;2023-02-13T02:41:09;95420.16;;;-0.71;100.00
10261;BME280;5175;42.606;23.388;2023-02-13T02:44:04;95439.13;;;-0.60;100.00
10261;BME280;5175;42.606;23.388;2023-02-13T02:46:35;95451.13;;;-0.82;100.00
10261;BME280;5175;42.606;23.388;2023-02-13T02:49:06;95460.44;;;-0.72;100.00
10261;BME280;5175;42.606;23.388;2023-02-13T02:52:00;95459.28;;;-0.69;100.00
10261;BME280;5175;42.606;23.388;2023-02-13T02:54:35;95470.97;;;-0.88;100.00
10261;BME280;5175;42.606;23.388;2023-02-13T02:57:23;95464.94;;;-0.96;100.00
10261;BME280;5175;42.606;23.388;2023-02-13T03:00:14;95466.00;;;-0.67;100.00
10261;BME280;5175;42.606;23.388;2023-02-13T03:02:59;95474.34;;;-0.63;100.00
10261;BME280;5175;42.606;23.388;2023-02-13T03:05:46;95468.78;;;-0.68;100.00
10261;BME280;5175;42.606;23.388;2023-02-13T03:08:31;95466.16;;;-0.68;100.00
10261;BME280;5175;42.606;23.388;2023-02-13T03:11:15;95463.84;;;-0.55;100.00
10261;BME280;5175;42.606;23.388;2023-02-13T03:14:00;95467.63;;;-0.57;100.00
10261;BME280;5175;42.606;23.388;2023-02-13T03:16:29;95460.09;;;-0.60;100.00
10261;BME280;5175;42.606;23.388;2023-02-13T03:19:19;95451.28;;;-0.76;100.00
10261;BME280;5175;42.606;23.388;2023-02-13T03:22:13;95465.22;;;-0.83;100.00
10261;BME280;5175;42.606;23.388;2023-02-13T03:24:53;95470.28;;;-0.74;100.00
10261;BME280;5175;42.606;23.388;2023-02-13T03:27:32;95464.53;;;-0.69;100.00
10261;BME280;5175;42.606;23.388;2023-02-13T03:30:29;95461.28;;;-0.79;100.00
10261;BME280;5175;42.606;23.388;2023-02-13T03:33:11;95465.00;;;-0.57;100.00
10261;BME280;5175;42.606;23.388;2023-02-13T03:35:46;95465.00;;;-0.66;100.00
10261;BME280;5175;42.606;23.388;2023-02-13T03:38:39;95470.72;;;-0.54;100.00
10261;BME280;5175;42.606;23.388;2023-02-13T03:41:13;95471.06;;;-0.65;100.00
10261;BME280;5175;42.606;23.388;2023-02-13T03:43:52;95474.16;;;-0.62;100.00
10261;BME280;5175;42.606;23.388;2023-02-13T03:46:23;95478.13;;;-0.74;100.00
10261;BME280;5175;42.606;23.388;2023-02-13T03:48:52;95467.31;;;-0.71;100.00
10261;BME280;5175;42.606;23.388;2023-02-13T03:51:40;95471.75;;;-0.79;100.00
10261;BME280;5175;42.606;23.388;2023-02-13T03:54:15;95459.06;;;-1.06;100.00
10261;BME280;5175;42.606;23.388;2023-02-13T03:56:44;95467.25;;;-1.17;100.00
10261;BME280;5175;42.606;23.388;2023-02-13T03:59:32;95463.16;;;-1.20;100.00
10261;BME280;5175;42.606;23.388;2023-02-13T04:02:05;95462.19;;;-1.43;100.00
10261;BME280;5175;42.606;23.388;2023-02-13T04:04:40;95468.56;;;-1.70;100.00
10261;BME280;5175;42.606;23.388;2023-02-13T04:07:11;95466.22;;;-1.97;100.00
10261;BME280;5175;42.606;23.388;2023-02-13T04:09:55;95475.53;;;-2.03;100.00
10261;BME280;5175;42.606;23.388;2023-02-13T04:12:32;95469.97;;;-2.16;100.00
10261;BME280;5175;42.606;23.388;2023-02-13T04:15:03;95474.03;;;-2.21;100.00
10261;BME280;5175;42.606;23.388;2023-02-13T04:17:36;95468.06;;;-2.39;100.00
10261;BME280;5175;42.606;23.388;2023-02-13T04:20:06;95470.66;;;-2.47;100.00
10261;BME280;5175;42.606;23.388;2023-02-13T04:22:33;95473.94;;;-2.45;100.00
10261;BME280;5175;42.606;23.388;2023-02-13T04:25:02;95472.09;;;-2.53;100.00
10261;BME280;5175;42.606;23.388;2023-02-13T04:27:28;95482.38;;;-2.52;100.00
10261;BME280;5175;42.606;23.388;2023-02-13T04:29:55;95474.53;;;-2.60;100.00
10261;BME280;5175;42.606;23.388;2023-02-13T04:32:22;95482.03;;;-2.57;100.00
10261;BME280;5175;42.606;23.388;2023-02-13T04:34:48;95484.81;;;-2.58;100.00
10261;BME280;5175;42.606;23.388;2023-02-13T04:37:15;95473.88;;;-2.54;100.00
10261;BME280;5175;42.606;23.388;2023-02-13T04:39:42;95474.59;;;-2.43;100.00
10261;BME280;5175;42.606;23.388;2023-02-13T04:42:10;95472.94;;;-2.53;100.00
10261;BME280;5175;42.606;23.388;2023-02-13T04:44:36;95456.94;;;-2.49;100.00
10261;BME280;5175;42.606;23.388;2023-02-13T04:47:03;95470.06;;;-2.25;100.00
10261;BME280;5175;42.606;23.388;2023-02-13T04:49:30;95471.22;;;-2.28;100.00
10261;BME280;5175;42.606;23.388;2023-02-13T04:51:57;95478.59;;;-2.15;100.00
10261;BME280;5175;42.606;23.388;2023-02-13T04:54:23;95480.72;;;-2.19;100.00
10261;BME280;5175;42.606;23.388;2023-02-13T04:56:50;95481.44;;;-2.01;100.00
10261;BME280;5175;42.606;23.388;2023-02-13T04:59:18;95497.81;;;-1.91;100.00
10261;BME280;5175;42.606;23.388;2023-02-13T05:01:45;95493.72;;;-1.85;100.00
10261;BME280;5175;42.606;23.388;2023-02-13T05:04:12;95460.50;;;-2.01;100.00
10261;BME280;5175;42.606;23.388;2023-02-13T05:06:40;95486.50;;;-1.91;100.00
10261;BME280;5175;42.606;23.388;2023-02-13T05:09:08;95485.19;;;-1.87;100.00
10261;BME280;5175;42.606;23.388;2023-02-13T05:11:35;95496.84;;;-1.65;100.00
10261;BME280;5175;42.606;23.388;2023-02-13T05:14:02;95502.59;;;-1.62;100.00
10261;BME280;5175;42.606;23.388;2023-02-13T05:16:30;95503.19;;;-1.84;100.00
10261;BME280;5175;42.606;23.388;2023-02-13T05:18:56;95504.63;;;-1.98;100.00
10261;BME280;5175;42.606;23.388;2023-02-13T05:21:23;95502.53;;;-1.86;100.00
10261;BME280;5175;42.606;23.388;2023-02-13T05:24:07;95499.06;;;-2.11;100.00
10261;BME280;5175;42.606;23.388;2023-02-13T05:26:34;95505.31;;;-1.96;100.00
10261;BME280;5175;42.606;23.388;2023-02-13T05:29:01;95502.00;;;-1.98;100.00
10261;BME280;5175;42.606;23.388;2023-02-13T05:31:49;95494.97;;;-2.05;100.00
10261;BME280;5175;42.606;23.388;2023-02-13T05:34:17;95491.41;;;-1.96;100.00
10261;BME280;5175;42.606;23.388;2023-02-13T05:36:44;95505.19;;;-1.78;100.00
10261;BME280;5175;42.606;23.388;2023-02-13T05:39:11;95505.78;;;-1.92;100.00
10261;BME280;5175;42.606;23.388;2023-02-13T05:41:39;95511.75;;;-2.24;100.00
10261;BME280;5175;42.606;23.388;2023-02-13T05:44:06;95506.63;;;-2.33;100.00
10261;BME280;5175;42.606;23.388;2023-02-13T05:46:33;95514.19;;;-2.22;100.00
10261;BME280;5175;42.606;23.388;2023-02-13T05:49:01;95514.03;;;-2.29;100.00
10261;BME280;5175;42.606;23.388;2023-02-13T05:51:28;95517.63;;;-2.22;100.00
10261;BME280;5175;42.606;23.388;2023-02-13T05:53:54;95513.59;;;-2.08;100.00
10261;BME280;5175;42.606;23.388;2023-02-13T05:56:21;95468.28;;;-2.25;100.00
10261;BME280;5175;42.606;23.388;2023-02-13T05:58:50;95521.72;;;-2.19;100.00
10261;BME280;5175;42.606;23.388;2023-02-13T06:01:17;95519.78;;;-2.17;100.00
10261;BME280;5175;42.606;23.388;2023-02-13T06:03:44;95526.06;;;-1.94;100.00
10261;BME280;5175;42.606;23.388;2023-02-13T06:06:12;95525.75;;;-1.91;100.00
10261;BME280;5175;42.606;23.388;2023-02-13T06:08:39;95530.59;;;-2.04;100.00
10261;BME280;5175;42.606;23.388;2023-02-13T06:11:06;95527.31;;;-2.14;100.00
10261;BME280;5175;42.606;23.388;2023-02-13T06:13:33;95515.50;;;-2.18;100.00
10261;BME280;5175;42.606;23.388;2023-02-13T06:16:00;95532.41;;;-1.97;100.00
10261;BME280;5175;42.606;23.388;2023-02-13T06:18:27;95538.97;;;-1.93;100.00
10261;BME280;5175;42.606;23.388;2023-02-13T06:20:53;95537.41;;;-1.77;100.00
10261;BME280;5175;42.606;23.388;2023-02-13T06:23:21;95538.88;;;-1.67;100.00
10261;BME280;5175;42.606;23.388;2023-02-13T06:25:48;95540.03;;;-1.53;100.00
10261;BME280;5175;42.606;23.388;2023-02-13T06:28:15;95538.56;;;-1.56;100.00
10261;BME280;5175;42.606;23.388;2023-02-13T06:30:42;95525.44;;;-1.72;100.00
10261;BME280;5175;42.606;23.388;2023-02-13T06:33:09;95539.19;;;-1.78;100.00
10261;BME280;5175;42.606;23.388;2023-02-13T06:35:36;95544.03;;;-1.99;100.00
10261;BME280;5175;42.606;23.388;2023-02-13T06:38:02;95554.72;;;-1.68;100.00
10261;BME280;5175;42.606;23.388;2023-02-13T06:40:31;95542.50;;;-1.60;100.00
10261;BME280;5175;42.606;23.388;2023-02-13T06:42:57;95523.31;;;-1.76;100.00
10261;BME280;5175;42.606;23.388;2023-02-13T06:45:24;95544.56;;;-1.79;100.00
10261;BME280;5175;42.606;23.388;2023-02-13T06:47:50;95545.25;;;-1.77;100.00
10261;BME280;5175;42.606;23.388;2023-02-13T06:50:17;95556.38;;;-1.51;100.00
10261;BME280;5175;42.606;23.388;2023-02-13T06:52:45;95547.09;;;-1.38;100.00
10261;BME280;5175;42.606;23.388;2023-02-13T06:55:12;95546.78;;;-1.10;100.00
10261;BME280;5175;42.606;23.388;2023-02-13T06:57:41;95530.88;;;-1.41;100.00
10261;BME280;5175;42.606;23.388;2023-02-13T07:00:09;95541.06;;;-1.14;100.00
10261;BME280;5175;42.606;23.388;2023-02-13T07:02:38;95541.56;;;-1.18;100.00
10261;BME280;5175;42.606;23.388;2023-02-13T07:05:06;95538.13;;;-1.19;100.00
10261;BME280;5175;42.606;23.388;2023-02-13T07:07:33;95548.09;;;-1.22;100.00
10261;BME280;5175;42.606;23.388;2023-02-13T07:10:00;95545.16;;;-1.11;100.00
10261;BME280;5175;42.606;23.388;2023-02-13T07:12:27;95542.03;;;-1.23;100.00
10261;BME280;5175;42.606;23.388;2023-02-13T07:14:55;95543.97;;;-1.33;100.00
10261;BME280;5175;42.606;23.388;2023-02-13T07:17:22;95535.81;;;-1.38;100.00
10261;BME280;5175;42.606;23.388;2023-02-13T07:19:48;95552.03;;;-1.27;100.00
10261;BME280;5175;42.606;23.388;2023-02-13T07:22:15;95544.31;;;-1.12;100.00
10261;BME280;5175;42.606;23.388;2023-02-13T07:24:42;95544.16;;;-0.70;100.00
10261;BME280;5175;42.606;23.388;2023-02-13T07:27:09;95556.72;;;-0.41;100.00
10261;BME280;5175;42.606;23.388;2023-02-13T07:29:35;95559.16;;;-0.56;100.00
10261;BME280;5175;42.606;23.388;2023-02-13T07:32:04;95529.25;;;-0.86;100.00
10261;BME280;5175;42.606;23.388;2023-02-13T07:34:31;95553.41;;;-0.43;100.00
10261;BME280;5175;42.606;23.388;2023-02-13T07:36:58;95569.06;;;-0.11;100.00
10261;BME280;5175;42.606;23.388;2023-02-13T07:39:25;95567.09;;;-0.17;100.00
10261;BME280;5175;42.606;23.388;2023-02-13T07:41:51;95551.78;;;-0.36;100.00
10261;BME280;5175;42.606;23.388;2023-02-13T07:44:18;95557.19;;;0.09;100.00
10261;BME280;5175;42.606;23.388;2023-02-13T07:46:48;95546.47;;;-0.20;100.00
10261;BME280;5175;42.606;23.388;2023-02-13T07:49:16;95562.16;;;-0.12;100.00
10261;BME280;5175;42.606;23.388;2023-02-13T07:51:43;95561.06;;;0.21;100.00
10261;BME280;5175;42.606;23.388;2023-02-13T07:54:09;95554.25;;;0.35;100.00
10261;BME280;5175;42.606;23.388;2023-02-13T07:56:36;95541.84;;;0.51;100.00
10261;BME280;5175;42.606;23.388;2023-02-13T07:59:03;95551.91;;;0.71;100.00
10261;BME280;5175;42.606;23.388;2023-02-13T08:01:30;95555.72;;;0.91;100.00
10261;BME280;5175;42.606;23.388;2023-02-13T08:03:56;95561.00;;;1.05;100.00
10261;BME280;5175;42.606;23.388;2023-02-13T08:06:24;95557.06;;;1.24;100.00
10261;BME280;5175;42.606;23.388;2023-02-13T08:08:51;95561.06;;;1.20;100.00
10261;BME280;5175;42.606;23.388;2023-02-13T08:11:38;95556.63;;;0.98;100.00
10261;BME280;5175;42.606;23.388;2023-02-13T08:14:19;95548.06;;;1.04;100.00
10261;BME280;5175;42.606;23.388;2023-02-13T08:16:46;95547.66;;;1.30;100.00
10261;BME280;5175;42.606;23.388;2023-02-13T08:19:13;95560.19;;;1.42;100.00
10261;BME280;5175;42.606;23.388;2023-02-13T08:21:41;95549.81;;;1.49;100.00
10261;BME280;5175;42.606;23.388;2023-02-13T08:24:07;95557.97;;;1.54;100.00
10261;BME280;5175;42.606;23.388;2023-02-13T08:26:34;95564.06;;;1.69;100.00
10261;BME280;5175;42.606;23.388;2023-02-13T08:29:02;95565.72;;;1.84;100.00
10261;BME280;5175;42.606;23.388;2023-02-13T08:31:29;95561.78;;;2.10;100.00
10261;BME280;5175;42.606;23.388;2023-02-13T08:33:56;95552.28;;;1.94;100.00
10261;BME280;5175;42.606;23.388;2023-02-13T08:36:22;95558.53;;;2.08;100.00
10261;BME280;5175;42.606;23.388;2023-02-13T08:38:51;95565.53;;;2.15;100.00
10261;BME280;5175;42.606;23.388;2023-02-13T08:41:18;95557.88;;;2.20;100.00
10261;BME280;5175;42.606;23.388;2023-02-13T08:43:46;95562.19;;;2.42;100.00
10261;BME280;5175;42.606;23.388;2023-02-13T08:46:13;95570.19;;;2.49;100.00
10261;BME280;5175;42.606;23.388;2023-02-13T08:48:40;95564.81;;;1.92;100.00
10261;BME280;5175;42.606;23.388;2023-02-13T08:51:08;95570.50;;;1.81;100.00
10261;BME280;5175;42.606;23.388;2023-02-13T08:53:35;95556.63;;;1.87;100.00
10261;BME280;5175;42.606;23.388;2023-02-13T08:56:04;95568.13;;;2.01;100.00
10261;BME280;5175;42.606;23.388;2023-02-13T08:58:31;95573.41;;;2.01;100.00
10261;BME280;5175;42.606;23.388;2023-02-13T09:00:58;95576.47;;;2.19;100.00
10261;BME280;5175;42.606;23.388;2023-02-13T09:03:25;95568.84;;;2.38;100.00
10261;BME280;5175;42.606;23.388;2023-02-13T09:05:51;95560.84;;;2.46;100.00
10261;BME280;5175;42.606;23.388;2023-02-13T09:08:18;95561.75;;;2.53;98.64
10261;BME280;5175;42.606;23.388;2023-02-13T09:10:45;95559.00;;;2.62;100.00
10261;BME280;5175;42.606;23.388;2023-02-13T09:13:13;95567.66;;;2.77;98.62
10261;BME280;5175;42.606;23.388;2023-02-13T09:15:40;95566.91;;;2.83;97.24
10261;BME280;5175;42.606;23.388;2023-02-13T09:18:07;95579.56;;;2.87;95.43
10261;BME280;5175;42.606;23.388;2023-02-13T09:20:34;95571.63;;;2.87;96.05
10261;BME280;5175;42.606;23.388;2023-02-13T09:23:00;95554.59;;;3.11;93.08
10261;BME280;5175;42.606;23.388;2023-02-13T09:25:27;95567.63;;;3.12;92.26
10261;BME280;5175;42.606;23.388;2023-02-13T09:27:54;95562.34;;;3.34;91.45
10261;BME280;5175;42.606;23.388;2023-02-13T09:30:22;95559.47;;;3.29;91.87
10261;BME280;5175;42.606;23.388;2023-02-13T09:32:49;95554.84;;;3.16;91.21
10261;BME280;5175;42.606;23.388;2023-02-13T09:35:16;95554.47;;;2.98;92.64
10261;BME280;5175;42.606;23.388;2023-02-13T09:37:43;95543.63;;;2.86;92.80
10261;BME280;5175;42.606;23.388;2023-02-13T09:40:17;95548.53;;;2.89;93.96
10261;BME280;5175;42.606;23.388;2023-02-13T09:42:46;95543.31;;;3.17;92.31
10261;BME280;5175;42.606;23.388;2023-02-13T09:45:16;95528.66;;;3.36;100.00
10261;BME280;5175;42.606;23.388;2023-02-13T09:47:47;95526.69;;;3.44;91.81
10261;BME280;5175;42.606;23.388;2023-02-13T09:50:18;95533.56;;;3.39;91.88
10261;BME280;5175;42.606;23.388;2023-02-13T09:52:49;95521.50;;;3.85;97.55
10261;BME280;5175;42.606;23.388;2023-02-13T09:55:18;95522.72;;;4.23;96.72
10261;BME280;5175;42.606;23.388;2023-02-13T09:57:50;95512.78;;;4.32;91.44
10261;BME280;5175;42.606;23.388;2023-02-13T10:00:20;95513.94;;;4.16;90.88
10261;BME280;5175;42.606;23.388;2023-02-13T10:03:13;95523.28;;;4.19;91.04
10261;BME280;5175;42.606;23.388;2023-02-13T10:05:48;95514.44;;;3.99;90.07
10261;BME280;5175;42.606;23.388;2023-02-13T10:08:25;95523.34;;;4.25;88.85
10261;BME280;5175;42.606;23.388;2023-02-13T10:11:03;95522.06;;;4.62;85.35
10261;BME280;5175;42.606;23.388;2023-02-13T10:13:46;95520.28;;;4.89;84.88
10261;BME280;5175;42.606;23.388;2023-02-13T10:16:18;95519.47;;;4.95;84.19
10261;BME280;5175;42.606;23.388;2023-02-13T10:18:50;95521.94;;;5.10;82.04
10261;BME280;5175;42.606;23.388;2023-02-13T10:21:21;95509.13;;;5.00;81.28
10261;BME280;5175;42.606;23.388;2023-02-13T10:23:54;95512.34;;;4.82;79.92
10261;BME280;5175;42.606;23.388;2023-02-13T10:26:26;95503.84;;;4.33;80.86
10261;BME280;5175;42.606;23.388;2023-02-13T10:29:10;95499.66;;;4.58;80.87
10261;BME280;5175;42.606;23.388;2023-02-13T10:31:59;95497.25;;;4.83;81.69
10261;BME280;5175;42.606;23.388;2023-02-13T10:34:33;95495.28;;;5.04;78.08
10261;BME280;5175;42.606;23.388;2023-02-13T10:37:08;95484.09;;;5.02;80.67
10261;BME280;5175;42.606;23.388;2023-02-13T10:39:41;95482.06;;;5.31;80.19
10261;BME280;5175;42.606;23.388;2023-02-13T10:42:19;95486.72;;;5.48;77.96
10261;BME280;5175;42.606;23.388;2023-02-13T10:44:58;95481.97;;;5.96;75.90
10261;BME280;5175;42.606;23.388;2023-02-13T10:47:45;95477.72;;;5.89;76.48
10261;BME280;5175;42.606;23.388;2023-02-13T10:50:22;95479.66;;;6.26;75.10
10261;BME280;5175;42.606;23.388;2023-02-13T10:53:04;95476.69;;;6.47;72.93
10261;BME280;5175;42.606;23.388;2023-02-13T10:55:54;95472.75;;;6.18;74.73
10261;BME280;5175;42.606;23.388;2023-02-13T10:58:31;95460.47;;;6.24;75.50
10261;BME280;5175;42.606;23.388;2023-02-13T11:01:02;95467.75;;;6.42;74.29
10261;BME280;5175;42.606;23.388;2023-02-13T11:03:32;95452.06;;;6.40;74.07
10261;BME280;5175;42.606;23.388;2023-02-13T11:06:05;95467.59;;;6.68;70.42
10261;BME280;5175;42.606;23.388;2023-02-13T11:08:35;95462.81;;;6.52;70.79
10261;BME280;5175;42.606;23.388;2023-02-13T11:11:32;95455.53;;;6.41;73.60
10261;BME280;5175;42.606;23.388;2023-02-13T11:14:12;95451.41;;;6.82;70.74
10261;BME280;5175;42.606;23.388;2023-02-13T11:16:42;95443.78;;;6.61;70.88
10261;BME280;5175;42.606;23.388;2023-02-13T11:19:21;95444.78;;;6.67;71.25
10261;BME280;5175;42.606;23.388;2023-02-13T11:21:57;95435.25;;;6.90;70.73
10261;BME280;5175;42.606;23.388;2023-02-13T11:24:26;95450.03;;;7.29;68.51
10261;BME280;5175;42.606;23.388;2023-02-13T11:26:57;95438.44;;;6.99;69.11
10261;BME280;5175;42.606;23.388;2023-02-13T11:29:27;95437.75;;;7.10;67.15
10261;BME280;5175;42.606;23.388;2023-02-13T11:32:09;95428.47;;;6.94;67.34
10261;BME280;5175;42.606;23.388;2023-02-13T11:34:43;95413.25;;;7.08;69.74
10261;BME280;5175;42.606;23.388;2023-02-13T11:37:21;95412.94;;;6.67;69.30
10261;BME280;5175;42.606;23.388;2023-02-13T11:39:49;95410.47;;;6.72;70.38
10261;BME280;5175;42.606;23.388;2023-02-13T11:42:20;95406.94;;;6.78;70.91
10261;BME280;5175;42.606;23.388;2023-02-13T11:44:52;95398.63;;;6.99;69.20
10261;BME280;5175;42.606;23.388;2023-02-13T11:47:30;95397.81;;;6.99;67.38
10261;BME280;5175;42.606;23.388;2023-02-13T11:49:58;95399.44;;;7.24;69.42
10261;BME280;5175;42.606;23.388;2023-02-13T11:52:28;95393.25;;;7.30;71.68
10261;BME280;5175;42.606;23.388;2023-02-13T11:54:57;95379.56;;;7.51;67.99
10261;BME280;5175;42.606;23.388;2023-02-13T11:57:29;95390.28;;;7.81;65.38
10261;BME280;5175;42.606;23.388;2023-02-13T11:59:56;95379.78;;;7.86;63.01
10261;BME280;5175;42.606;23.388;2023-02-13T12:02:25;95365.19;;;7.59;61.60
10261;BME280;5175;42.606;23.388;2023-02-13T12:04:53;95369.50;;;7.35;64.32
10261;BME280;5175;42.606;23.388;2023-02-13T12:07:25;95360.41;;;7.49;63.41
10261;BME280;5175;42.606;23.388;2023-02-13T12:09:59;95348.53;;;7.52;65.73
10261;BME280;5175;42.606;23.388;2023-02-13T12:12:30;95366.06;;;7.71;61.17
10261;BME280;5175;42.606;23.388;2023-02-13T12:15:01;95342.25;;;7.46;63.91
10261;BME280;5175;42.606;23.388;2023-02-13T12:17:29;95359.19;;;7.82;62.09
10261;BME280;5175;42.606;23.388;2023-02-13T12:19:56;95366.00;;;7.96;61.80
10261;BME280;5175;42.606;23.388;2023-02-13T12:22:31;95356.91;;;8.03;59.97
10261;BME280;5175;42.606;23.388;2023-02-13T12:28:10;95361.13;;;8.23;57.18
10261;BME280;5175;42.606;23.388;2023-02-13T12:36:48;95357.63;;;8.70;55.59
10261;BME280;5175;42.606;23.388;2023-02-13T12:39:25;95362.28;;;8.74;54.84
10261;BME280;5175;42.606;23.388;2023-02-13T12:42:12;95352.66;;;8.73;52.88
10261;BME280;5175;42.606;23.388;2023-02-13T12:45:03;95345.66;;;8.91;54.04
10261;BME280;5175;42.606;23.388;2023-02-13T12:47:38;95343.97;;;8.66;53.37
10261;BME280;5175;42.606;23.388;2023-02-13T12:50:35;95334.75;;;8.80;53.37
10261;BME280;5175;42.606;23.388;2023-02-13T12:53:18;95344.66;;;8.73;52.96
10261;BME280;5175;42.606;23.388;2023-02-13T12:55:57;95328.16;;;8.95;52.52
10261;BME280;5175;42.606;23.388;2023-02-13T12:58:45;95329.31;;;9.22;52.05
10261;BME280;5175;42.606;23.388;2023-02-13T13:01:25;95318.56;;;9.17;50.08
10261;BME280;5175;42.606;23.388;2023-02-13T13:04:08;95310.34;;;9.41;50.25
10261;BME280;5175;42.606;23.388;2023-02-13T13:06:56;95329.31;;;9.57;50.24
10261;BME280;5175;42.606;23.388;2023-02-13T13:09:36;95324.22;;;9.55;50.12
10261;BME280;5175;42.606;23.388;2023-02-13T13:12:25;95324.38;;;9.37;49.95
10261;BME280;5175;42.606;23.388;2023-02-13T13:14:59;95320.53;;;9.44;49.59
10261;BME280;5175;42.606;23.388;2023-02-13T13:17:49;95321.00;;;9.18;48.02
10261;BME280;5175;42.606;23.388;2023-02-13T13:20:36;95314.16;;;8.99;50.88
10261;BME280;5175;42.606;23.388;2023-02-13T13:23:11;95309.88;;;9.10;49.96
10261;BME280;5175;42.606;23.388;2023-02-13T13:25:45;95286.81;;;9.38;52.08
10261;BME280;5175;42.606;23.388;2023-02-13T13:28:17;95296.88;;;9.48;49.14
10261;BME280;5175;42.606;23.388;2023-02-13T13:30:45;95295.56;;;9.74;49.21